Cibolo, TX (78108)

10:58 PM CDT on July 03, 2015 (GMT -0500)
Wiedner Road Near Schlather Park | | Change Station
CLOSE
Current Station
Personal Weather Station
Location: Cibolo, TX
Elevation: 761 ft
Nearby Weather Stations

Elev 761 ft 29.59 °N, 98.23 °W | Updated 7 minutes ago

Clear
Clear
75.6 °F
Feels Like 76 °F
N
1.7
Wind Variable Wind from SSW

Today
High -- | Low -- °F
--% Chance of Precip.
Yesterday
High -- | Low -- °F
Precip. -- in
6:37 AM 8:36 PM
Waning Gibbous, 94% visible
Pressure 29.96 in
Visibility 10.0 miles
Clouds Clear
Heat Index 76 °F
Dew Point 71 °F
Humidity 86%
Rainfall 0.00 in
Snow Depth Not available.
UV 0 out of 12
Pollen 3.90 out of 12
Air Quality Not available.
Flu Activity Not available.
METAR KRND 040356Z AUTO 17006KT 10SM CLR 25/22 A2998 RMK AO2 SLP144 T02520221

More Conditions Fewer Conditions

Pressure 29.96 in
Visibility 10.0 miles
Clouds Clear
Heat Index 76 °F
Dew Point 71 °F
Humidity 86%
Rainfall 0.00 in
Snow Depth Not available.
UV 0 out of 12
Pollen 3.90 out of 12
Air Quality Not available.
Flu Activity Not available.
METAR KRND 040356Z AUTO 17006KT 10SM CLR 25/22 A2998 RMK AO2 SLP144 T02520221

More Conditions Fewer Conditions

10-Day Weather Forecast

×

Almanac

Astronomy

Jul. 03, 2015 Rise Set
Actual Time
Civil Twilight
Nautical Twilight
Astronomical Twilight
Moon
Length of Visible Light
Length of Day
Tomorrow will be .
, % of the Moon is Illuminated

Today's Extremes

State Highs State Lows

Community

WunderPhotos

Upload Photos

1,834,917 photos uploaded!

WunderBlogs® & News

Nearby

Air Quality

  Air Quality AQ Index Pollutant
Not available.

Snow Depth

Station Depth Elevation

Earthquake Activity

City Distance Mag. Time & Date
Minimum magnitude displayed is 2.5.

Coastal Water Temperatures

Place Temperature

Stations

Nearby Weather Stations

Station Location Temp. Windchill Dew Point Humidity Wind Precip. Elev Updated Type